Time;durP1;ratioP1;P1;durP2;ratioP2;P2;SDS_P1;SDS_P2;PMS_P1;PMS_P2;Temp;Humidity;BMP_temperature;BMP_pressure;BME280_temperature;BME280_humidity;BME280_pressure;Samples;Min_cycle;Max_cycle;Signal;HPM_P1;HPM_P2
2022/07/03 00:00:47;;;;;;;0.10;0.10;;;;;;;;;;10533306;28;20059;-67
2022/07/03 00:05:49;;;;;;;0.10;0.10;;;;;;;;;;10523597;28;20098;-67
2022/07/03 00:10:51;;;;;;;0.10;0.10;;;;;;;;;;10533110;28;20044;-67
2022/07/03 00:15:58;;;;;;;0.10;0.10;;;;;;;;;;10507419;28;20045;-68
2022/07/03 00:21:02;;;;;;;1.83;1.83;;;;;;;;;;10488230;28;20340;-67
2022/07/03 00:26:06;;;;;;;3.20;3.10;;;;;;;;;;10520758;28;20049;-67
2022/07/03 00:31:12;;;;;;;2.10;2.10;;;;;;;;;;10501094;28;20048;-67
2022/07/03 00:36:14;;;;;;;2.80;2.70;;;;;;;;;;10521730;28;20048;-68
2022/07/03 00:41:27;;;;;;;2.72;2.65;;;;;;;;;;10490808;28;20052;-67
2022/07/03 00:46:31;;;;;;;2.53;2.53;;;;;;;;;;10501404;28;20086;-67
2022/07/03 00:51:37;;;;;;;1.50;1.50;;;;;;;;;;10531371;28;20239;-68
2022/07/03 00:56:42;;;;;;;0.50;0.50;;;;;;;;;;10520210;28;20340;-69
2022/07/03 01:01:46;;;;;;;0.30;0.30;;;;;;;;;;10501104;28;20052;-68
2022/07/03 01:06:54;;;;;;;0.20;0.20;;;;;;;;;;10498938;28;20049;-68
2022/07/03 01:12:02;;;;;;;0.20;0.20;;;;;;;;;;10504936;28;20045;-68
2022/07/03 01:17:09;;;;;;;0.20;0.20;;;;;;;;;;10501639;28;20138;-69
2022/07/03 01:22:30;;;;;;;0.10;0.10;;;;;;;;;;10505031;28;20048;-68
2022/07/03 01:27:42;;;;;;;0.10;0.10;;;;;;;;;;10507990;28;20072;-68
2022/07/03 01:32:46;;;;;;;0.10;0.10;;;;;;;;;;10507620;28;20259;-68
2022/07/03 01:37:49;;;;;;;0.20;0.20;;;;;;;;;;10493566;28;20049;-68
2022/07/03 01:42:53;;;;;;;0.10;0.10;;;;;;;;;;10511577;28;20059;-68
2022/07/03 01:47:58;;;;;;;0.10;0.10;;;;;;;;;;10525568;28;20048;-68
2022/07/03 01:53:02;;;;;;;0.10;0.10;;;;;;;;;;10538433;28;20060;-68
2022/07/03 01:58:06;;;;;;;0.17;0.17;;;;;;;;;;10502095;28;20064;-68
2022/07/03 02:03:09;;;;;;;1.80;1.80;;;;;;;;;;10505713;28;20083;-68
2022/07/03 02:08:34;;;;;;;2.70;2.63;;;;;;;;;;10537704;28;20048;-67
2022/07/03 02:13:40;;;;;;;0.10;0.10;;;;;;;;;;10512313;28;20045;-68
2022/07/03 02:18:44;;;;;;;2.95;2.85;;;;;;;;;;10495841;28;20086;-68
2022/07/03 02:23:56;;;;;;;0.20;0.20;;;;;;;;;;10494439;28;20052;-68
2022/07/03 02:29:04;;;;;;;1.50;1.50;;;;;;;;;;10486343;28;20259;-68
2022/07/03 02:34:07;;;;;;;1.90;1.90;;;;;;;;;;10482545;28;20053;-68
2022/07/03 02:39:17;;;;;;;2.03;2.03;;;;;;;;;;10532043;28;20268;-68
2022/07/03 02:44:27;;;;;;;2.00;2.00;;;;;;;;;;10486781;28;20048;-67
2022/07/03 02:49:44;;;;;;;0.20;0.20;;;;;;;;;;10531438;28;20228;-67
2022/07/03 02:54:47;;;;;;;3.35;3.25;;;;;;;;;;10493912;28;20052;-67
2022/07/03 03:00:00;;;;;;;5.60;5.40;;;;;;;;;;10501353;28;20060;-67
2022/07/03 03:05:06;;;;;;;13.98;13.27;;;;;;;;;;10521602;28;20059;-67
2022/07/03 03:10:09;;;;;;;0.60;0.60;;;;;;;;;;10527836;28;20047;-68
2022/07/03 03:15:13;;;;;;;0.40;0.40;;;;;;;;;;10480055;28;20144;-67
2022/07/03 03:20:18;;;;;;;0.20;0.20;;;;;;;;;;10500738;28;20041;-69
2022/07/03 03:25:20;;;;;;;12.82;12.23;;;;;;;;;;10511847;28;20047;-67
2022/07/03 03:30:24;;;;;;;10.48;9.98;;;;;;;;;;10521729;28;20069;-68
2022/07/03 03:35:27;;;;;;;1.40;1.40;;;;;;;;;;10492886;28;20364;-68
2022/07/03 03:40:28;;;;;;;;;;;;;;;;;;10516641;28;20053;-68
2022/07/03 03:45:32;;;;;;;0.20;0.20;;;;;;;;;;10505020;28;19925;-68
2022/07/03 03:50:34;;;;;;;0.10;0.10;;;;;;;;;;10521694;28;20236;-68
2022/07/03 03:55:36;;;;;;;0.10;0.10;;;;;;;;;;10504314;28;20044;-67
2022/07/03 04:00:40;;;;;;;0.10;0.10;;;;;;;;;;10477791;28;20139;-67
2022/07/03 04:05:42;;;;;;;0.00;0.00;;;;;;;;;;10483057;28;20332;-67
2022/07/03 04:10:44;;;;;;;0.00;0.00;;;;;;;;;;10491203;28;20052;-68
2022/07/03 04:15:48;;;;;;;0.00;0.00;;;;;;;;;;10495536;28;20090;-67
2022/07/03 04:20:50;;;;;;;0.00;0.00;;;;;;;;;;10519542;28;20048;-68
2022/07/03 04:25:52;;;;;;;0.00;0.00;;;;;;;;;;10502887;28;20049;-68
2022/07/03 04:30:56;;;;;;;0.00;0.00;;;;;;;;;;10506393;28;20063;-68
2022/07/03 04:35:59;;;;;;;0.00;0.00;;;;;;;;;;10488099;28;20084;-68
2022/07/03 04:41:01;;;;;;;0.00;0.00;;;;;;;;;;10519987;28;20048;-68
2022/07/03 04:46:05;;;;;;;0.00;0.00;;;;;;;;;;10532177;28;20125;-68
2022/07/03 04:51:07;;;;;;;0.00;0.00;;;;;;;;;;10500699;28;20060;-68
2022/07/03 04:56:09;;;;;;;0.00;0.00;;;;;;;;;;10518443;28;20049;-68
2022/07/03 18:01:13;;;;;;;0.00;0.00;;;;;;;;;;10667303;27;20424;-68
2022/07/03 18:06:19;;;;;;;0.00;0.00;;;;;;;;;;10613128;27;20092;-68
2022/07/03 18:11:28;;;;;;;0.00;0.00;;;;;;;;;;10612061;27;20039;-69
2022/07/03 18:16:35;;;;;;;0.00;0.00;;;;;;;;;;10617809;27;20044;-69
2022/07/03 18:21:42;;;;;;;0.00;0.00;;;;;;;;;;10601467;28;20116;-70
2022/07/03 18:26:46;;;;;;;0.00;0.00;;;;;;;;;;10609173;28;20104;-66
2022/07/03 18:31:50;;;;;;;0.00;0.00;;;;;;;;;;10596323;28;20075;-70
2022/07/03 18:36:53;;;;;;;0.00;0.00;;;;;;;;;;10608222;28;20051;-70
2022/07/03 18:41:56;;;;;;;0.00;0.00;;;;;;;;;;10614067;27;20042;-71
2022/07/03 18:47:01;;;;;;;0.00;0.00;;;;;;;;;;10607896;28;20051;-70
2022/07/03 18:52:04;;;;;;;;;;;;;;;;;;10628294;27;20319;-68
2022/07/03 18:57:11;;;;;;;1.50;1.50;;;;;;;;;;10604622;28;19922;-70
2022/07/03 19:02:18;;;;;;;0.00;0.00;;;;;;;;;;10607261;28;20047;-69
2022/07/03 19:07:27;;;;;;;0.00;0.00;;;;;;;;;;10609694;28;20039;-68
2022/07/03 19:12:37;;;;;;;0.00;0.00;;;;;;;;;;10577110;28;20051;-68
2022/07/03 19:17:43;;;;;;;0.00;0.00;;;;;;;;;;10586581;28;20047;-69
2022/07/03 19:22:45;;;;;;;0.00;0.00;;;;;;;;;;10583223;28;20044;-70
2022/07/03 19:27:47;;;;;;;0.00;0.00;;;;;;;;;;10596610;28;20050;-69
2022/07/03 19:32:52;;;;;;;0.00;0.00;;;;;;;;;;10581854;28;20059;-67
2022/07/03 19:37:54;;;;;;;0.00;0.00;;;;;;;;;;10563592;28;20043;-68
2022/07/03 19:42:57;;;;;;;0.00;0.00;;;;;;;;;;10583330;28;20043;-69
2022/07/03 19:48:00;;;;;;;0.00;0.00;;;;;;;;;;10601798;28;20044;-68
2022/07/03 19:53:03;;;;;;;0.00;0.00;;;;;;;;;;10588077;28;20046;-68
2022/07/03 19:58:06;;;;;;;0.00;0.00;;;;;;;;;;10601789;28;20060;-67
2022/07/03 20:03:11;;;;;;;0.00;0.00;;;;;;;;;;10579152;28;20055;-67
2022/07/03 20:08:13;;;;;;;0.00;0.00;;;;;;;;;;10581786;28;20048;-66
2022/07/03 20:13:16;;;;;;;0.00;0.00;;;;;;;;;;10569389;28;20040;-69
2022/07/03 20:18:20;;;;;;;0.00;0.00;;;;;;;;;;10616597;28;20052;-67
2022/07/03 20:23:22;;;;;;;0.00;0.00;;;;;;;;;;10579546;28;20322;-66
2022/07/03 20:28:24;;;;;;;0.00;0.00;;;;;;;;;;10562304;28;20239;-67
2022/07/03 20:33:28;;;;;;;0.00;0.00;;;;;;;;;;10597847;28;20055;-68
2022/07/03 20:38:30;;;;;;;0.10;0.10;;;;;;;;;;10584180;28;20066;-67
2022/07/03 20:43:33;;;;;;;0.00;0.00;;;;;;;;;;10560661;28;20048;-68
2022/07/03 20:48:37;;;;;;;0.00;0.00;;;;;;;;;;10575133;28;20052;-67
2022/07/03 20:53:39;;;;;;;0.00;0.00;;;;;;;;;;10560813;28;20048;-68
2022/07/03 20:58:42;;;;;;;0.00;0.00;;;;;;;;;;10560470;28;20055;-67
2022/07/03 21:03:45;;;;;;;0.08;0.08;;;;;;;;;;10564285;28;20082;-68
2022/07/03 21:08:48;;;;;;;0.00;0.00;;;;;;;;;;10560769;28;20246;-67
2022/07/03 21:13:50;;;;;;;0.00;0.00;;;;;;;;;;10561100;28;20059;-68
2022/07/03 21:18:53;;;;;;;0.10;0.10;;;;;;;;;;10608155;28;20051;-68
2022/07/03 21:23:56;;;;;;;0.10;0.10;;;;;;;;;;10582002;28;20063;-68
2022/07/03 21:28:59;;;;;;;0.03;0.03;;;;;;;;;;10579648;28;20300;-68
2022/07/03 21:34:03;;;;;;;0.10;0.10;;;;;;;;;;10564241;28;20139;-67
2022/07/03 21:39:05;;;;;;;0.10;0.10;;;;;;;;;;10605875;28;20043;-67
2022/07/03 21:44:08;;;;;;;0.10;0.10;;;;;;;;;;10580486;28;20227;-68
2022/07/03 21:49:16;;;;;;;0.10;0.10;;;;;;;;;;10572944;28;20051;-68
2022/07/03 21:54:18;;;;;;;0.10;0.10;;;;;;;;;;10572351;28;20081;-68
2022/07/03 21:59:21;;;;;;;0.10;0.10;;;;;;;;;;10563455;28;20059;-69
2022/07/03 22:04:25;;;;;;;0.10;0.10;;;;;;;;;;10579088;28;20100;-68
2022/07/03 22:09:45;;;;;;;0.10;0.10;;;;;;;;;;10593668;28;20055;-68
2022/07/03 22:14:48;;;;;;;0.00;0.00;;;;;;;;;;10572712;28;20040;-68
2022/07/03 22:19:52;;;;;;;0.10;0.10;;;;;;;;;;10571696;28;20051;-66
2022/07/03 22:24:54;;;;;;;0.00;0.00;;;;;;;;;;10572811;28;20250;-67
2022/07/03 22:29:56;;;;;;;0.10;0.10;;;;;;;;;;10565061;28;20342;-66
2022/07/03 22:35:00;;;;;;;0.10;0.10;;;;;;;;;;10600510;28;20040;-69
2022/07/03 22:40:02;;;;;;;0.10;0.10;;;;;;;;;;10573631;28;20235;-67
2022/07/03 22:45:06;;;;;;;0.10;0.10;;;;;;;;;;10562099;28;20229;-69
2022/07/03 22:50:10;;;;;;;0.10;0.10;;;;;;;;;;10579830;28;20214;-67
2022/07/03 22:55:12;;;;;;;0.10;0.10;;;;;;;;;;10565966;28;20048;-67
2022/07/03 23:00:16;;;;;;;0.10;0.10;;;;;;;;;;10567625;28;20052;-67
2022/07/03 23:05:19;;;;;;;0.10;0.10;;;;;;;;;;10571027;28;20044;-68
2022/07/03 23:10:24;;;;;;;0.10;0.10;;;;;;;;;;10579694;28;20247;-68
2022/07/03 23:15:26;;;;;;;0.10;0.10;;;;;;;;;;10578452;28;20350;-68
2022/07/03 23:20:30;;;;;;;0.10;0.10;;;;;;;;;;10577980;28;20052;-68
2022/07/03 23:25:32;;;;;;;0.10;0.10;;;;;;;;;;10564678;28;20048;-68
2022/07/03 23:30:34;;;;;;;0.10;0.10;;;;;;;;;;10577664;28;20058;-68
2022/07/03 23:35:38;;;;;;;0.10;0.10;;;;;;;;;;10578072;28;20040;-68
2022/07/03 23:40:40;;;;;;;0.10;0.10;;;;;;;;;;10577179;28;20039;-68
2022/07/03 23:45:42;;;;;;;0.10;0.10;;;;;;;;;;10577872;28;20048;-68
2022/07/03 23:50:46;;;;;;;0.10;0.10;;;;;;;;;;10577373;28;20243;-68
2022/07/03 23:55:49;;;;;;;0.10;0.10;;;;;;;;;;10576874;28;20366;-68
